Main page
METAR-TAF:

METAR-TAF

Airports :

Rivolto Air Base

Udine, Italy

latitude: 45-59N, longitude: 013-02E, elevation: 51 m

Current weather observation

The report was made 1 hour and 1 minutes ago, at 06:07 UTC
Wind 1 kt from variable directions
Temperature 10°C
Humidity 87%
Pressure 1011 hPa
Visibility: 3000 m
Scattered clouds at a height of 300 ft
Scattered clouds at a height of 1000 ft
mist

METAR: LIPI 210607Z VRB01KT 3000 BR SCT003 SCT010 10/08 Q1011 RMK OVC VIS MIN 3000 WIND THR06 VRB02KT WIND THR24 16001KT YLO

Time: 08:08 (07:08 UTC)

Forecast

The report was made 2 hours and 8 minutes ago, at 05:00 UTC
Forecast valid from 21 at 06 UTC to 21 at 15 UTC
Wind 2 kt from the East/Northeast
Visibility 10 km or more
Few clouds at a height of 600 ft
Scattered clouds at a height of 2000 ft
Temporary
from 21 at 06 UTC to 21 at 12 UTC
Visibility: 7000 m
rain

TAF: LIPI 210500Z 2106/2115 07002KT 9999 FEW006 SCT020 TEMPO 2106/2112 7000 RA

Weather observations and forecasts of more than 4000 airports (METAR and TAF reports).

The available stations are represented by yellow and red dots on the map.

Hover mouse over dot to see the name of the station.

Then click to see weather observations and forecasts.

To change the map : click on the green buttons with a black cross to zoom in, on the green button with a dash to zoom out, or on the green arrows for adjacent maps.


METAR-TAF: